sensor_id;sensor_type;location;lat;lon;timestamp;P1;durP1;ratioP1;P2;durP2;ratioP2
25045;SDS011;13044;49.304;12.840;2023-04-10T00:00:01;29.42;;;17.50;;
25045;SDS011;13044;49.304;12.840;2023-04-10T00:02:29;24.35;;;16.38;;
25045;SDS011;13044;49.304;12.840;2023-04-10T00:04:56;29.13;;;19.27;;
25045;SDS011;13044;49.304;12.840;2023-04-10T00:07:24;23.50;;;16.35;;
25045;SDS011;13044;49.304;12.840;2023-04-10T00:09:51;25.92;;;16.77;;
25045;SDS011;13044;49.304;12.840;2023-04-10T00:12:18;28.67;;;18.83;;
25045;SDS011;13044;49.304;12.840;2023-04-10T00:14:46;30.85;;;19.98;;
25045;SDS011;13044;49.304;12.840;2023-04-10T00:17:13;29.50;;;18.65;;
25045;SDS011;13044;49.304;12.840;2023-04-10T00:19:40;27.80;;;17.55;;
25045;SDS011;13044;49.304;12.840;2023-04-10T00:22:06;25.02;;;16.83;;
25045;SDS011;13044;49.304;12.840;2023-04-10T00:24:33;28.67;;;17.77;;
25045;SDS011;13044;49.304;12.840;2023-04-10T00:27:00;28.58;;;18.95;;
25045;SDS011;13044;49.304;12.840;2023-04-10T00:29:27;31.17;;;19.90;;
25045;SDS011;13044;49.304;12.840;2023-04-10T00:31:54;28.48;;;18.05;;
25045;SDS011;13044;49.304;12.840;2023-04-10T00:34:21;28.08;;;18.42;;
25045;SDS011;13044;49.304;12.840;2023-04-10T00:36:49;24.48;;;16.75;;
25045;SDS011;13044;49.304;12.840;2023-04-10T00:39:16;24.85;;;16.85;;
25045;SDS011;13044;49.304;12.840;2023-04-10T00:41:43;24.77;;;16.38;;
25045;SDS011;13044;49.304;12.840;2023-04-10T00:44:10;24.55;;;16.40;;
25045;SDS011;13044;49.304;12.840;2023-04-10T00:46:37;26.52;;;17.17;;
25045;SDS011;13044;49.304;12.840;2023-04-10T00:49:05;24.67;;;16.00;;
25045;SDS011;13044;49.304;12.840;2023-04-10T00:51:32;26.85;;;18.13;;
25045;SDS011;13044;49.304;12.840;2023-04-10T00:53:59;25.00;;;16.67;;
25045;SDS011;13044;49.304;12.840;2023-04-10T00:56:29;29.10;;;17.23;;
25045;SDS011;13044;49.304;12.840;2023-04-10T00:58:57;23.67;;;16.52;;
25045;SDS011;13044;49.304;12.840;2023-04-10T01:01:24;25.17;;;16.58;;
25045;SDS011;13044;49.304;12.840;2023-04-10T01:03:51;27.98;;;18.30;;
25045;SDS011;13044;49.304;12.840;2023-04-10T01:06:37;28.13;;;17.92;;
25045;SDS011;13044;49.304;12.840;2023-04-10T01:09:16;25.30;;;17.80;;
25045;SDS011;13044;49.304;12.840;2023-04-10T01:15:16;26.67;;;17.10;;
25045;SDS011;13044;49.304;12.840;2023-04-10T01:20:31;26.92;;;17.67;;
25045;SDS011;13044;49.304;12.840;2023-04-10T01:31:20;24.02;;;15.73;;
25045;SDS011;13044;49.304;12.840;2023-04-10T01:34:14;23.63;;;13.68;;
25045;SDS011;13044;49.304;12.840;2023-04-10T01:36:47;27.70;;;18.08;;
25045;SDS011;13044;49.304;12.840;2023-04-10T01:39:30;29.02;;;18.17;;
25045;SDS011;13044;49.304;12.840;2023-04-10T01:42:01;24.00;;;16.58;;
25045;SDS011;13044;49.304;12.840;2023-04-10T01:44:31;28.83;;;17.60;;
25045;SDS011;13044;49.304;12.840;2023-04-10T01:47:01;23.45;;;15.82;;
25045;SDS011;13044;49.304;12.840;2023-04-10T01:49:32;26.45;;;15.57;;
25045;SDS011;13044;49.304;12.840;2023-04-10T01:52:02;21.90;;;14.73;;
25045;SDS011;13044;49.304;12.840;2023-04-10T01:54:31;25.67;;;15.95;;
25045;SDS011;13044;49.304;12.840;2023-04-10T01:56:59;26.77;;;16.88;;
25045;SDS011;13044;49.304;12.840;2023-04-10T01:59:29;28.25;;;17.67;;
25045;SDS011;13044;49.304;12.840;2023-04-10T02:01:56;32.97;;;19.38;;
25045;SDS011;13044;49.304;12.840;2023-04-10T02:04:24;29.30;;;17.10;;
25045;SDS011;13044;49.304;12.840;2023-04-10T02:09:46;26.52;;;17.13;;
25045;SDS011;13044;49.304;12.840;2023-04-10T02:15:05;24.75;;;15.95;;
25045;SDS011;13044;49.304;12.840;2023-04-10T02:17:34;27.00;;;17.23;;
25045;SDS011;13044;49.304;12.840;2023-04-10T02:20:04;25.55;;;16.30;;
25045;SDS011;13044;49.304;12.840;2023-04-10T02:22:33;24.13;;;15.85;;
25045;SDS011;13044;49.304;12.840;2023-04-10T02:25:03;26.88;;;17.80;;
25045;SDS011;13044;49.304;12.840;2023-04-10T02:27:32;27.48;;;17.90;;
25045;SDS011;13044;49.304;12.840;2023-04-10T02:30:01;27.52;;;17.17;;
25045;SDS011;13044;49.304;12.840;2023-04-10T02:32:30;25.95;;;17.45;;
25045;SDS011;13044;49.304;12.840;2023-04-10T02:34:58;24.85;;;17.17;;
25045;SDS011;13044;49.304;12.840;2023-04-10T02:37:27;26.02;;;17.20;;
25045;SDS011;13044;49.304;12.840;2023-04-10T02:39:54;25.88;;;17.65;;
25045;SDS011;13044;49.304;12.840;2023-04-10T02:42:21;22.98;;;15.55;;
25045;SDS011;13044;49.304;12.840;2023-04-10T02:44:48;30.90;;;17.38;;
25045;SDS011;13044;49.304;12.840;2023-04-10T02:47:15;26.80;;;16.77;;
25045;SDS011;13044;49.304;12.840;2023-04-10T02:49:43;28.58;;;18.02;;
25045;SDS011;13044;49.304;12.840;2023-04-10T02:52:10;27.52;;;17.85;;
25045;SDS011;13044;49.304;12.840;2023-04-10T02:54:37;26.30;;;17.52;;
25045;SDS011;13044;49.304;12.840;2023-04-10T02:57:05;27.70;;;16.95;;
25045;SDS011;13044;49.304;12.840;2023-04-10T02:59:32;22.45;;;16.17;;
25045;SDS011;13044;49.304;12.840;2023-04-10T03:01:59;25.92;;;17.63;;
25045;SDS011;13044;49.304;12.840;2023-04-10T03:04:26;24.80;;;16.73;;
25045;SDS011;13044;49.304;12.840;2023-04-10T03:06:54;26.05;;;16.88;;
25045;SDS011;13044;49.304;12.840;2023-04-10T03:09:21;24.98;;;16.45;;
25045;SDS011;13044;49.304;12.840;2023-04-10T03:11:47;23.15;;;16.42;;
25045;SDS011;13044;49.304;12.840;2023-04-10T03:14:15;28.80;;;18.40;;
25045;SDS011;13044;49.304;12.840;2023-04-10T03:16:42;24.27;;;16.38;;
25045;SDS011;13044;49.304;12.840;2023-04-10T03:19:09;28.13;;;18.70;;
25045;SDS011;13044;49.304;12.840;2023-04-10T03:21:37;30.63;;;20.38;;
25045;SDS011;13044;49.304;12.840;2023-04-10T03:24:04;29.98;;;18.80;;
25045;SDS011;13044;49.304;12.840;2023-04-10T03:26:32;27.75;;;18.45;;
25045;SDS011;13044;49.304;12.840;2023-04-10T03:28:59;30.33;;;19.35;;
25045;SDS011;13044;49.304;12.840;2023-04-10T03:31:26;31.25;;;18.77;;
25045;SDS011;13044;49.304;12.840;2023-04-10T03:33:53;32.35;;;19.05;;
25045;SDS011;13044;49.304;12.840;2023-04-10T03:36:20;28.25;;;18.00;;
25045;SDS011;13044;49.304;12.840;2023-04-10T03:38:47;33.95;;;20.05;;
25045;SDS011;13044;49.304;12.840;2023-04-10T03:41:14;30.25;;;20.52;;
25045;SDS011;13044;49.304;12.840;2023-04-10T03:43:40;31.80;;;19.17;;
25045;SDS011;13044;49.304;12.840;2023-04-10T03:46:07;28.65;;;19.10;;
25045;SDS011;13044;49.304;12.840;2023-04-10T03:48:34;30.38;;;19.95;;
25045;SDS011;13044;49.304;12.840;2023-04-10T03:51:01;29.38;;;19.15;;
25045;SDS011;13044;49.304;12.840;2023-04-10T03:53:28;25.88;;;16.77;;
25045;SDS011;13044;49.304;12.840;2023-04-10T03:55:55;27.73;;;18.17;;
25045;SDS011;13044;49.304;12.840;2023-04-10T03:58:22;24.02;;;16.45;;
25045;SDS011;13044;49.304;12.840;2023-04-10T04:00:49;23.52;;;16.42;;
25045;SDS011;13044;49.304;12.840;2023-04-10T04:03:16;26.23;;;18.30;;
25045;SDS011;13044;49.304;12.840;2023-04-10T04:05:43;29.33;;;18.92;;
25045;SDS011;13044;49.304;12.840;2023-04-10T04:08:10;27.70;;;18.15;;
25045;SDS011;13044;49.304;12.840;2023-04-10T04:10:38;28.88;;;18.90;;
25045;SDS011;13044;49.304;12.840;2023-04-10T04:13:05;31.40;;;20.10;;
25045;SDS011;13044;49.304;12.840;2023-04-10T04:15:32;31.67;;;18.17;;
25045;SDS011;13044;49.304;12.840;2023-04-10T04:17:59;25.50;;;17.27;;
25045;SDS011;13044;49.304;12.840;2023-04-10T04:20:26;27.27;;;18.02;;
25045;SDS011;13044;49.304;12.840;2023-04-10T04:22:53;27.95;;;17.98;;
25045;SDS011;13044;49.304;12.840;2023-04-10T04:25:19;27.85;;;17.95;;
25045;SDS011;13044;49.304;12.840;2023-04-10T04:27:46;28.15;;;18.75;;
25045;SDS011;13044;49.304;12.840;2023-04-10T04:30:13;29.90;;;18.65;;
25045;SDS011;13044;49.304;12.840;2023-04-10T04:32:40;26.60;;;18.33;;
25045;SDS011;13044;49.304;12.840;2023-04-10T04:35:07;30.17;;;19.80;;
25045;SDS011;13044;49.304;12.840;2023-04-10T04:37:34;28.90;;;19.38;;
25045;SDS011;13044;49.304;12.840;2023-04-10T04:40:01;30.92;;;19.50;;
25045;SDS011;13044;49.304;12.840;2023-04-10T04:42:28;28.17;;;17.80;;
25045;SDS011;13044;49.304;12.840;2023-04-10T04:44:56;29.88;;;18.75;;
25045;SDS011;13044;49.304;12.840;2023-04-10T04:47:22;32.03;;;19.92;;
25045;SDS011;13044;49.304;12.840;2023-04-10T04:49:49;30.65;;;19.67;;
25045;SDS011;13044;49.304;12.840;2023-04-10T04:52:16;31.30;;;20.00;;
25045;SDS011;13044;49.304;12.840;2023-04-10T04:54:43;31.75;;;20.17;;
25045;SDS011;13044;49.304;12.840;2023-04-10T04:57:10;30.17;;;19.58;;
25045;SDS011;13044;49.304;12.840;2023-04-10T04:59:37;31.40;;;19.90;;
25045;SDS011;13044;49.304;12.840;2023-04-10T05:02:04;26.77;;;18.00;;
25045;SDS011;13044;49.304;12.840;2023-04-10T05:04:31;28.20;;;18.15;;
25045;SDS011;13044;49.304;12.840;2023-04-10T05:06:58;29.17;;;18.90;;
25045;SDS011;13044;49.304;12.840;2023-04-10T05:09:24;30.67;;;19.13;;
25045;SDS011;13044;49.304;12.840;2023-04-10T05:11:51;30.63;;;19.17;;
25045;SDS011;13044;49.304;12.840;2023-04-10T05:14:19;27.15;;;17.77;;
25045;SDS011;13044;49.304;12.840;2023-04-10T05:16:47;24.73;;;16.63;;
25045;SDS011;13044;49.304;12.840;2023-04-10T05:19:14;29.55;;;18.40;;
25045;SDS011;13044;49.304;12.840;2023-04-10T05:21:41;28.52;;;18.40;;
25045;SDS011;13044;49.304;12.840;2023-04-10T05:24:08;28.27;;;18.55;;
25045;SDS011;13044;49.304;12.840;2023-04-10T05:26:35;29.50;;;18.92;;
25045;SDS011;13044;49.304;12.840;2023-04-10T05:29:02;30.50;;;19.67;;
25045;SDS011;13044;49.304;12.840;2023-04-10T05:31:29;28.08;;;17.85;;
25045;SDS011;13044;49.304;12.840;2023-04-10T05:33:56;26.88;;;17.42;;
25045;SDS011;13044;49.304;12.840;2023-04-10T05:36:23;25.63;;;16.85;;
25045;SDS011;13044;49.304;12.840;2023-04-10T05:38:50;30.83;;;19.27;;
25045;SDS011;13044;49.304;12.840;2023-04-10T05:41:18;34.50;;;21.27;;
25045;SDS011;13044;49.304;12.840;2023-04-10T05:43:44;30.98;;;20.15;;
25045;SDS011;13044;49.304;12.840;2023-04-10T05:46:11;33.35;;;18.70;;
25045;SDS011;13044;49.304;12.840;2023-04-10T05:48:38;31.27;;;20.70;;
25045;SDS011;13044;49.304;12.840;2023-04-10T05:51:05;36.13;;;22.15;;
25045;SDS011;13044;49.304;12.840;2023-04-10T05:53:32;31.85;;;20.13;;
25045;SDS011;13044;49.304;12.840;2023-04-10T05:56:08;27.90;;;17.70;;
25045;SDS011;13044;49.304;12.840;2023-04-10T05:58:52;32.63;;;18.77;;
25045;SDS011;13044;49.304;12.840;2023-04-10T06:01:19;33.85;;;19.17;;
25045;SDS011;13044;49.304;12.840;2023-04-10T06:03:46;29.30;;;19.67;;
25045;SDS011;13044;49.304;12.840;2023-04-10T06:06:13;29.65;;;19.60;;
25045;SDS011;13044;49.304;12.840;2023-04-10T06:08:40;39.17;;;21.02;;
25045;SDS011;13044;49.304;12.840;2023-04-10T06:11:07;31.30;;;19.85;;
25045;SDS011;13044;49.304;12.840;2023-04-10T06:13:33;29.85;;;20.35;;
25045;SDS011;13044;49.304;12.840;2023-04-10T06:16:01;32.22;;;21.33;;
25045;SDS011;13044;49.304;12.840;2023-04-10T06:18:28;34.53;;;22.55;;
25045;SDS011;13044;49.304;12.840;2023-04-10T06:20:54;34.58;;;22.15;;
25045;SDS011;13044;49.304;12.840;2023-04-10T06:23:23;33.92;;;22.90;;
25045;SDS011;13044;49.304;12.840;2023-04-10T06:25:50;41.92;;;23.58;;
25045;SDS011;13044;49.304;12.840;2023-04-10T06:28:16;33.72;;;21.98;;
25045;SDS011;13044;49.304;12.840;2023-04-10T06:30:43;36.25;;;22.63;;
25045;SDS011;13044;49.304;12.840;2023-04-10T06:33:10;42.10;;;25.55;;
25045;SDS011;13044;49.304;12.840;2023-04-10T06:35:37;36.13;;;23.35;;
25045;SDS011;13044;49.304;12.840;2023-04-10T06:38:04;38.67;;;25.55;;
25045;SDS011;13044;49.304;12.840;2023-04-10T06:40:31;37.85;;;24.05;;
25045;SDS011;13044;49.304;12.840;2023-04-10T06:42:59;36.70;;;23.10;;
25045;SDS011;13044;49.304;12.840;2023-04-10T06:45:26;42.97;;;26.48;;
25045;SDS011;13044;49.304;12.840;2023-04-10T06:47:53;38.10;;;24.77;;
25045;SDS011;13044;49.304;12.840;2023-04-10T06:50:20;37.20;;;24.85;;
25045;SDS011;13044;49.304;12.840;2023-04-10T06:52:47;37.22;;;25.38;;
25045;SDS011;13044;49.304;12.840;2023-04-10T06:55:14;38.53;;;24.35;;
25045;SDS011;13044;49.304;12.840;2023-04-10T06:57:41;37.33;;;24.40;;
25045;SDS011;13044;49.304;12.840;2023-04-10T07:00:08;36.42;;;23.48;;
25045;SDS011;13044;49.304;12.840;2023-04-10T07:02:36;36.95;;;23.38;;
25045;SDS011;13044;49.304;12.840;2023-04-10T07:05:03;37.97;;;24.83;;
25045;SDS011;13044;49.304;12.840;2023-04-10T07:07:30;38.88;;;25.55;;
25045;SDS011;13044;49.304;12.840;2023-04-10T07:09:58;36.45;;;24.15;;
25045;SDS011;13044;49.304;12.840;2023-04-10T07:12:24;38.17;;;23.95;;
25045;SDS011;13044;49.304;12.840;2023-04-10T07:14:51;39.72;;;25.35;;
25045;SDS011;13044;49.304;12.840;2023-04-10T07:17:18;31.67;;;21.67;;
25045;SDS011;13044;49.304;12.840;2023-04-10T07:19:45;36.15;;;23.63;;
25045;SDS011;13044;49.304;12.840;2023-04-10T07:22:12;31.55;;;22.35;;
25045;SDS011;13044;49.304;12.840;2023-04-10T07:24:39;35.55;;;24.05;;
25045;SDS011;13044;49.304;12.840;2023-04-10T07:27:06;37.13;;;24.60;;
25045;SDS011;13044;49.304;12.840;2023-04-10T07:29:33;36.05;;;23.95;;
25045;SDS011;13044;49.304;12.840;2023-04-10T07:32:00;35.42;;;23.70;;
25045;SDS011;13044;49.304;12.840;2023-04-10T07:34:27;33.72;;;23.25;;
25045;SDS011;13044;49.304;12.840;2023-04-10T07:36:56;32.42;;;22.90;;
25045;SDS011;13044;49.304;12.840;2023-04-10T07:39:23;33.97;;;22.55;;
25045;SDS011;13044;49.304;12.840;2023-04-10T07:41:51;34.72;;;23.08;;
25045;SDS011;13044;49.304;12.840;2023-04-10T07:44:19;35.88;;;24.08;;
25045;SDS011;13044;49.304;12.840;2023-04-10T07:46:46;29.58;;;21.48;;
25045;SDS011;13044;49.304;12.840;2023-04-10T07:49:15;34.53;;;22.55;;
25045;SDS011;13044;49.304;12.840;2023-04-10T07:51:42;33.35;;;22.60;;
25045;SDS011;13044;49.304;12.840;2023-04-10T07:54:09;34.00;;;22.08;;
25045;SDS011;13044;49.304;12.840;2023-04-10T07:56:36;30.95;;;22.23;;
25045;SDS011;13044;49.304;12.840;2023-04-10T07:59:03;29.95;;;21.30;;
25045;SDS011;13044;49.304;12.840;2023-04-10T08:01:31;28.73;;;19.92;;
25045;SDS011;13044;49.304;12.840;2023-04-10T08:03:58;28.33;;;20.42;;
25045;SDS011;13044;49.304;12.840;2023-04-10T08:06:29;28.02;;;20.00;;
25045;SDS011;13044;49.304;12.840;2023-04-10T08:08:57;28.73;;;20.38;;
25045;SDS011;13044;49.304;12.840;2023-04-10T08:11:28;27.75;;;19.50;;
25045;SDS011;13044;49.304;12.840;2023-04-10T08:14:02;25.35;;;18.23;;
25045;SDS011;13044;49.304;12.840;2023-04-10T08:16:29;25.65;;;18.38;;
25045;SDS011;13044;49.304;12.840;2023-04-10T08:18:59;27.55;;;19.85;;
25045;SDS011;13044;49.304;12.840;2023-04-10T08:21:27;24.10;;;18.55;;
25045;SDS011;13044;49.304;12.840;2023-04-10T08:23:58;26.83;;;18.88;;
25045;SDS011;13044;49.304;12.840;2023-04-10T08:26:26;24.13;;;18.02;;
25045;SDS011;13044;49.304;12.840;2023-04-10T08:28:55;24.00;;;16.73;;
25045;SDS011;13044;49.304;12.840;2023-04-10T08:31:24;21.52;;;16.50;;
25045;SDS011;13044;49.304;12.840;2023-04-10T08:33:53;22.20;;;16.45;;
25045;SDS011;13044;49.304;12.840;2023-04-10T08:36:21;22.65;;;16.20;;
25045;SDS011;13044;49.304;12.840;2023-04-10T08:38:49;25.05;;;16.67;;
25045;SDS011;13044;49.304;12.840;2023-04-10T08:41:16;22.25;;;16.17;;
25045;SDS011;13044;49.304;12.840;2023-04-10T08:43:44;23.50;;;16.92;;
25045;SDS011;13044;49.304;12.840;2023-04-10T08:46:12;22.83;;;16.27;;
25045;SDS011;13044;49.304;12.840;2023-04-10T08:48:52;19.08;;;14.63;;
25045;SDS011;13044;49.304;12.840;2023-04-10T08:51:28;21.77;;;15.52;;
25045;SDS011;13044;49.304;12.840;2023-04-10T08:54:07;19.42;;;14.95;;
25045;SDS011;13044;49.304;12.840;2023-04-10T08:56:39;17.15;;;13.20;;
25045;SDS011;13044;49.304;12.840;2023-04-10T08:59:08;15.95;;;12.38;;
25045;SDS011;13044;49.304;12.840;2023-04-10T09:01:35;14.55;;;11.50;;
25045;SDS011;13044;49.304;12.840;2023-04-10T09:04:02;21.02;;;15.63;;
25045;SDS011;13044;49.304;12.840;2023-04-10T09:06:30;22.17;;;17.00;;
25045;SDS011;13044;49.304;12.840;2023-04-10T09:08:57;23.15;;;16.65;;
25045;SDS011;13044;49.304;12.840;2023-04-10T09:14:30;18.13;;;14.07;;
25045;SDS011;13044;49.304;12.840;2023-04-10T09:17:10;17.30;;;12.77;;
25045;SDS011;13044;49.304;12.840;2023-04-10T09:19:56;18.52;;;14.63;;
25045;SDS011;13044;49.304;12.840;2023-04-10T09:22:32;18.55;;;14.25;;
25045;SDS011;13044;49.304;12.840;2023-04-10T09:25:02;19.95;;;14.73;;
25045;SDS011;13044;49.304;12.840;2023-04-10T09:27:35;18.67;;;13.98;;
25045;SDS011;13044;49.304;12.840;2023-04-10T09:30:06;18.90;;;13.55;;
25045;SDS011;13044;49.304;12.840;2023-04-10T09:32:41;17.98;;;13.27;;
25045;SDS011;13044;49.304;12.840;2023-04-10T09:35:10;17.00;;;12.57;;
25045;SDS011;13044;49.304;12.840;2023-04-10T09:37:39;17.98;;;13.27;;
25045;SDS011;13044;49.304;12.840;2023-04-10T09:40:20;16.65;;;12.27;;
25045;SDS011;13044;49.304;12.840;2023-04-10T09:42:52;17.45;;;12.63;;
25045;SDS011;13044;49.304;12.840;2023-04-10T09:45:21;16.33;;;12.40;;
25045;SDS011;13044;49.304;12.840;2023-04-10T09:48:02;14.85;;;11.38;;
25045;SDS011;13044;49.304;12.840;2023-04-10T09:50:35;14.32;;;11.73;;
25045;SDS011;13044;49.304;12.840;2023-04-10T09:53:06;16.65;;;12.90;;
25045;SDS011;13044;49.304;12.840;2023-04-10T09:55:37;16.55;;;12.18;;
25045;SDS011;13044;49.304;12.840;2023-04-10T09:58:04;16.10;;;12.40;;
25045;SDS011;13044;49.304;12.840;2023-04-10T10:00:34;18.23;;;12.23;;
25045;SDS011;13044;49.304;12.840;2023-04-10T10:03:09;11.48;;;9.70;;
25045;SDS011;13044;49.304;12.840;2023-04-10T10:05:49;13.88;;;10.63;;
25045;SDS011;13044;49.304;12.840;2023-04-10T10:08:17;11.70;;;9.85;;
25045;SDS011;13044;49.304;12.840;2023-04-10T10:13:21;12.88;;;10.63;;
25045;SDS011;13044;49.304;12.840;2023-04-10T10:16:03;12.77;;;10.63;;
25045;SDS011;13044;49.304;12.840;2023-04-10T10:18:46;15.75;;;11.73;;
25045;SDS011;13044;49.304;12.840;2023-04-10T10:21:27;13.40;;;11.07;;
25045;SDS011;13044;49.304;12.840;2023-04-10T10:23:55;13.15;;;10.80;;
25045;SDS011;13044;49.304;12.840;2023-04-10T10:26:24;16.90;;;11.23;;
25045;SDS011;13044;49.304;12.840;2023-04-10T10:28:54;12.15;;;10.15;;
25045;SDS011;13044;49.304;12.840;2023-04-10T10:31:24;19.83;;;13.48;;
25045;SDS011;13044;49.304;12.840;2023-04-10T10:33:57;17.02;;;12.55;;
25045;SDS011;13044;49.304;12.840;2023-04-10T10:36:36;14.10;;;10.13;;
25045;SDS011;13044;49.304;12.840;2023-04-10T10:41:43;13.07;;;10.57;;
25045;SDS011;13044;49.304;12.840;2023-04-10T10:47:28;12.82;;;10.45;;
25045;SDS011;13044;49.304;12.840;2023-04-10T10:58:15;13.02;;;10.85;;
25045;SDS011;13044;49.304;12.840;2023-04-10T11:08:46;12.32;;;9.20;;
25045;SDS011;13044;49.304;12.840;2023-04-10T11:11:21;11.27;;;9.10;;
25045;SDS011;13044;49.304;12.840;2023-04-10T11:19:06;12.05;;;9.55;;
25045;SDS011;13044;49.304;12.840;2023-04-10T11:21:58;12.00;;;9.68;;
25045;SDS011;13044;49.304;12.840;2023-04-10T11:24:26;10.98;;;9.30;;
25045;SDS011;13044;49.304;12.840;2023-04-10T11:26:54;10.90;;;8.48;;
25045;SDS011;13044;49.304;12.840;2023-04-10T11:31:57;10.88;;;9.43;;
25045;SDS011;13044;49.304;12.840;2023-04-10T11:34:26;12.35;;;9.10;;
25045;SDS011;13044;49.304;12.840;2023-04-10T11:36:55;9.90;;;8.50;;
25045;SDS011;13044;49.304;12.840;2023-04-10T11:39:23;11.65;;;9.27;;
25045;SDS011;13044;49.304;12.840;2023-04-10T11:41:53;11.25;;;9.05;;
25045;SDS011;13044;49.304;12.840;2023-04-10T11:44:29;11.55;;;8.77;;
25045;SDS011;13044;49.304;12.840;2023-04-10T11:46:57;10.35;;;8.88;;
25045;SDS011;13044;49.304;12.840;2023-04-10T11:49:25;10.48;;;8.70;;
25045;SDS011;13044;49.304;12.840;2023-04-10T11:51:54;10.05;;;8.25;;
25045;SDS011;13044;49.304;12.840;2023-04-10T11:54:22;10.10;;;8.20;;
25045;SDS011;13044;49.304;12.840;2023-04-10T11:57:03;10.73;;;8.80;;
25045;SDS011;13044;49.304;12.840;2023-04-10T11:59:34;9.55;;;7.90;;
25045;SDS011;13044;49.304;12.840;2023-04-10T12:02:05;9.57;;;7.95;;
25045;SDS011;13044;49.304;12.840;2023-04-10T12:04:34;8.55;;;7.38;;
25045;SDS011;13044;49.304;12.840;2023-04-10T12:07:03;8.52;;;7.63;;
25045;SDS011;13044;49.304;12.840;2023-04-10T12:09:29;8.98;;;7.47;;
25045;SDS011;13044;49.304;12.840;2023-04-10T12:12:00;8.43;;;7.10;;
25045;SDS011;13044;49.304;12.840;2023-04-10T12:17:05;8.90;;;7.35;;
25045;SDS011;13044;49.304;12.840;2023-04-10T12:19:36;8.50;;;7.13;;
25045;SDS011;13044;49.304;12.840;2023-04-10T12:22:04;7.40;;;6.40;;
25045;SDS011;13044;49.304;12.840;2023-04-10T12:24:44;8.15;;;7.15;;
25045;SDS011;13044;49.304;12.840;2023-04-10T12:27:26;14.77;;;7.90;;
25045;SDS011;13044;49.304;12.840;2023-04-10T12:29:54;10.02;;;8.02;;
25045;SDS011;13044;49.304;12.840;2023-04-10T12:32:23;9.10;;;7.35;;
25045;SDS011;13044;49.304;12.840;2023-04-10T12:34:53;8.75;;;7.38;;
25045;SDS011;13044;49.304;12.840;2023-04-10T12:40:17;8.95;;;7.32;;
25045;SDS011;13044;49.304;12.840;2023-04-10T12:42:45;7.55;;;6.75;;
25045;SDS011;13044;49.304;12.840;2023-04-10T12:45:12;8.52;;;6.55;;
25045;SDS011;13044;49.304;12.840;2023-04-10T12:47:43;7.07;;;6.38;;
25045;SDS011;13044;49.304;12.840;2023-04-10T12:50:14;7.35;;;5.82;;
25045;SDS011;13044;49.304;12.840;2023-04-10T12:53:00;8.60;;;5.88;;
25045;SDS011;13044;49.304;12.840;2023-04-10T12:55:37;6.25;;;5.00;;
25045;SDS011;13044;49.304;12.840;2023-04-10T12:58:19;6.22;;;5.63;;
25045;SDS011;13044;49.304;12.840;2023-04-10T13:00:46;7.03;;;5.70;;
25045;SDS011;13044;49.304;12.840;2023-04-10T13:03:14;18.10;;;10.85;;
25045;SDS011;13044;49.304;12.840;2023-04-10T13:05:41;7.88;;;6.18;;
25045;SDS011;13044;49.304;12.840;2023-04-10T13:08:08;9.23;;;6.18;;
25045;SDS011;13044;49.304;12.840;2023-04-10T13:10:35;7.30;;;5.45;;
25045;SDS011;13044;49.304;12.840;2023-04-10T13:13:03;6.32;;;5.35;;
25045;SDS011;13044;49.304;12.840;2023-04-10T13:15:32;5.50;;;4.78;;
25045;SDS011;13044;49.304;12.840;2023-04-10T13:18:02;6.90;;;5.40;;
25045;SDS011;13044;49.304;12.840;2023-04-10T13:20:39;6.85;;;5.80;;
25045;SDS011;13044;49.304;12.840;2023-04-10T13:23:06;7.38;;;5.57;;
25045;SDS011;13044;49.304;12.840;2023-04-10T13:25:35;6.68;;;5.97;;
25045;SDS011;13044;49.304;12.840;2023-04-10T13:28:05;6.22;;;5.45;;
25045;SDS011;13044;49.304;12.840;2023-04-10T13:30:41;6.88;;;5.68;;
25045;SDS011;13044;49.304;12.840;2023-04-10T13:33:08;6.85;;;5.57;;
25045;SDS011;13044;49.304;12.840;2023-04-10T13:35:35;6.45;;;5.70;;
25045;SDS011;13044;49.304;12.840;2023-04-10T13:38:02;5.93;;;5.32;;
25045;SDS011;13044;49.304;12.840;2023-04-10T13:40:29;6.10;;;5.50;;
25045;SDS011;13044;49.304;12.840;2023-04-10T13:42:56;5.63;;;5.13;;
25045;SDS011;13044;49.304;12.840;2023-04-10T13:45:23;6.10;;;5.43;;
25045;SDS011;13044;49.304;12.840;2023-04-10T13:47:50;5.68;;;5.10;;
25045;SDS011;13044;49.304;12.840;2023-04-10T13:50:17;6.63;;;5.45;;
25045;SDS011;13044;49.304;12.840;2023-04-10T13:52:43;5.32;;;4.82;;
25045;SDS011;13044;49.304;12.840;2023-04-10T13:55:10;5.85;;;5.25;;
25045;SDS011;13044;49.304;12.840;2023-04-10T13:57:37;6.28;;;5.53;;
25045;SDS011;13044;49.304;12.840;2023-04-10T14:00:05;10.52;;;6.20;;
25045;SDS011;13044;49.304;12.840;2023-04-10T14:02:33;6.15;;;5.55;;
25045;SDS011;13044;49.304;12.840;2023-04-10T14:05:00;6.95;;;5.85;;
25045;SDS011;13044;49.304;12.840;2023-04-10T14:07:27;7.00;;;5.82;;
25045;SDS011;13044;49.304;12.840;2023-04-10T14:09:54;6.90;;;6.20;;
25045;SDS011;13044;49.304;12.840;2023-04-10T14:12:21;5.85;;;5.25;;
25045;SDS011;13044;49.304;12.840;2023-04-10T14:14:48;6.15;;;5.55;;
25045;SDS011;13044;49.304;12.840;2023-04-10T14:17:15;9.73;;;5.45;;
25045;SDS011;13044;49.304;12.840;2023-04-10T14:19:42;6.07;;;5.47;;
25045;SDS011;13044;49.304;12.840;2023-04-10T14:22:11;6.22;;;5.35;;
25045;SDS011;13044;49.304;12.840;2023-04-10T14:24:38;5.55;;;4.90;;
25045;SDS011;13044;49.304;12.840;2023-04-10T14:27:05;5.30;;;4.80;;
25045;SDS011;13044;49.304;12.840;2023-04-10T14:29:32;5.53;;;4.32;;
25045;SDS011;13044;49.304;12.840;2023-04-10T14:32:05;8.45;;;6.43;;
25045;SDS011;13044;49.304;12.840;2023-04-10T14:34:32;7.75;;;5.82;;
25045;SDS011;13044;49.304;12.840;2023-04-10T14:36:59;5.82;;;5.22;;
25045;SDS011;13044;49.304;12.840;2023-04-10T14:39:27;5.70;;;4.80;;
25045;SDS011;13044;49.304;12.840;2023-04-10T14:41:54;4.97;;;4.47;;
25045;SDS011;13044;49.304;12.840;2023-04-10T14:44:22;5.30;;;4.80;;
25045;SDS011;13044;49.304;12.840;2023-04-10T14:46:48;6.50;;;4.50;;
25045;SDS011;13044;49.304;12.840;2023-04-10T14:49:15;5.60;;;5.00;;
25045;SDS011;13044;49.304;12.840;2023-04-10T14:51:43;5.78;;;5.18;;
25045;SDS011;13044;49.304;12.840;2023-04-10T14:54:10;5.88;;;5.25;;
25045;SDS011;13044;49.304;12.840;2023-04-10T14:56:37;5.22;;;4.68;;
25045;SDS011;13044;49.304;12.840;2023-04-10T14:59:04;8.77;;;5.97;;
25045;SDS011;13044;49.304;12.840;2023-04-10T15:01:32;5.95;;;5.35;;
25045;SDS011;13044;49.304;12.840;2023-04-10T15:04:01;5.35;;;4.85;;
25045;SDS011;13044;49.304;12.840;2023-04-10T15:06:28;6.47;;;5.05;;
25045;SDS011;13044;49.304;12.840;2023-04-10T15:08:57;4.80;;;4.30;;
25045;SDS011;13044;49.304;12.840;2023-04-10T15:11:24;6.07;;;4.97;;
25045;SDS011;13044;49.304;12.840;2023-04-10T15:13:51;5.53;;;5.00;;
25045;SDS011;13044;49.304;12.840;2023-04-10T15:16:18;5.18;;;4.68;;
25045;SDS011;13044;49.304;12.840;2023-04-10T15:18:46;5.80;;;5.20;;
25045;SDS011;13044;49.304;12.840;2023-04-10T15:21:14;5.43;;;4.88;;
25045;SDS011;13044;49.304;12.840;2023-04-10T15:23:41;7.13;;;5.07;;
25045;SDS011;13044;49.304;12.840;2023-04-10T15:26:12;5.82;;;5.22;;